sensor_id;sensor_type;location;lat;lon;timestamp;P1;durP1;ratioP1;P2;durP2;ratioP2
15258;SDS011;34462;51.368;12.364;2022-09-16T00:01:08;2.13;;;1.30;;
15258;SDS011;34462;51.368;12.364;2022-09-16T00:03:38;3.13;;;1.70;;
15258;SDS011;34462;51.368;12.364;2022-09-16T00:06:11;2.13;;;1.70;;
15258;SDS011;34462;51.368;12.364;2022-09-16T00:08:46;3.73;;;1.50;;
15258;SDS011;34462;51.368;12.364;2022-09-16T00:11:15;2.87;;;1.37;;
15258;SDS011;34462;51.368;12.364;2022-09-16T00:13:44;2.57;;;1.27;;
15258;SDS011;34462;51.368;12.364;2022-09-16T00:16:15;3.83;;;1.30;;
15258;SDS011;34462;51.368;12.364;2022-09-16T00:18:46;2.57;;;1.30;;
15258;SDS011;34462;51.368;12.364;2022-09-16T00:21:16;2.13;;;1.20;;
15258;SDS011;34462;51.368;12.364;2022-09-16T00:23:44;1.93;;;1.17;;
15258;SDS011;34462;51.368;12.364;2022-09-16T00:26:12;1.63;;;1.53;;
15258;SDS011;34462;51.368;12.364;2022-09-16T00:28:40;2.23;;;1.40;;
15258;SDS011;34462;51.368;12.364;2022-09-16T00:31:08;3.27;;;1.60;;
15258;SDS011;34462;51.368;12.364;2022-09-16T00:33:37;2.20;;;1.60;;
15258;SDS011;34462;51.368;12.364;2022-09-16T00:36:05;3.13;;;1.40;;
15258;SDS011;34462;51.368;12.364;2022-09-16T00:38:38;5.23;;;1.47;;
15258;SDS011;34462;51.368;12.364;2022-09-16T00:41:06;3.03;;;1.27;;
15258;SDS011;34462;51.368;12.364;2022-09-16T00:43:47;3.37;;;1.10;;
15258;SDS011;34462;51.368;12.364;2022-09-16T00:46:19;2.70;;;1.40;;
15258;SDS011;34462;51.368;12.364;2022-09-16T00:48:55;2.87;;;1.50;;
15258;SDS011;34462;51.368;12.364;2022-09-16T00:51:24;3.90;;;1.30;;
15258;SDS011;34462;51.368;12.364;2022-09-16T00:53:56;4.57;;;1.27;;
15258;SDS011;34462;51.368;12.364;2022-09-16T00:56:29;2.37;;;1.27;;
15258;SDS011;34462;51.368;12.364;2022-09-16T00:59:05;2.23;;;1.20;;
15258;SDS011;34462;51.368;12.364;2022-09-16T01:01:38;3.73;;;1.37;;
15258;SDS011;34462;51.368;12.364;2022-09-16T01:04:09;1.23;;;1.13;;
15258;SDS011;34462;51.368;12.364;2022-09-16T01:06:44;1.80;;;1.30;;
15258;SDS011;34462;51.368;12.364;2022-09-16T01:09:14;1.93;;;1.20;;
15258;SDS011;34462;51.368;12.364;2022-09-16T01:11:45;3.93;;;1.50;;
15258;SDS011;34462;51.368;12.364;2022-09-16T01:14:13;2.77;;;1.40;;
15258;SDS011;34462;51.368;12.364;2022-09-16T01:17:01;4.50;;;1.63;;
15258;SDS011;34462;51.368;12.364;2022-09-16T01:19:57;5.53;;;1.53;;
15258;SDS011;34462;51.368;12.364;2022-09-16T01:23:00;3.13;;;1.30;;
15258;SDS011;34462;51.368;12.364;2022-09-16T01:25:52;2.17;;;1.13;;
15258;SDS011;34462;51.368;12.364;2022-09-16T01:29:02;2.93;;;1.07;;
15258;SDS011;34462;51.368;12.364;2022-09-16T01:32:15;1.83;;;1.30;;
15258;SDS011;34462;51.368;12.364;2022-09-16T01:34:55;1.97;;;1.33;;
15258;SDS011;34462;51.368;12.364;2022-09-16T01:37:38;1.77;;;1.30;;
15258;SDS011;34462;51.368;12.364;2022-09-16T01:40:23;3.73;;;1.50;;
15258;SDS011;34462;51.368;12.364;2022-09-16T01:43:02;1.80;;;1.13;;
15258;SDS011;34462;51.368;12.364;2022-09-16T01:45:45;3.13;;;1.27;;
15258;SDS011;34462;51.368;12.364;2022-09-16T01:48:24;2.23;;;1.20;;
15258;SDS011;34462;51.368;12.364;2022-09-16T01:51:04;1.30;;;1.20;;
15258;SDS011;34462;51.368;12.364;2022-09-16T01:53:42;3.27;;;1.20;;
15258;SDS011;34462;51.368;12.364;2022-09-16T01:56:21;1.97;;;1.20;;
15258;SDS011;34462;51.368;12.364;2022-09-16T01:58:58;2.47;;;1.40;;
15258;SDS011;34462;51.368;12.364;2022-09-16T02:01:35;3.87;;;1.20;;
15258;SDS011;34462;51.368;12.364;2022-09-16T02:04:14;3.97;;;1.17;;
15258;SDS011;34462;51.368;12.364;2022-09-16T02:06:50;4.07;;;1.30;;
15258;SDS011;34462;51.368;12.364;2022-09-16T02:09:23;3.07;;;1.30;;
15258;SDS011;34462;51.368;12.364;2022-09-16T02:11:58;3.13;;;1.27;;
15258;SDS011;34462;51.368;12.364;2022-09-16T02:14:34;5.37;;;1.40;;
15258;SDS011;34462;51.368;12.364;2022-09-16T02:17:08;2.33;;;1.07;;
15258;SDS011;34462;51.368;12.364;2022-09-16T02:19:41;2.00;;;1.20;;
15258;SDS011;34462;51.368;12.364;2022-09-16T02:22:15;2.57;;;1.30;;
15258;SDS011;34462;51.368;12.364;2022-09-16T02:24:49;1.03;;;0.90;;
15258;SDS011;34462;51.368;12.364;2022-09-16T02:27:19;2.83;;;1.33;;
15258;SDS011;34462;51.368;12.364;2022-09-16T02:29:51;1.43;;;1.10;;
15258;SDS011;34462;51.368;12.364;2022-09-16T02:32:27;3.27;;;1.00;;
15258;SDS011;34462;51.368;12.364;2022-09-16T02:35:01;1.47;;;1.10;;
15258;SDS011;34462;51.368;12.364;2022-09-16T02:37:34;2.40;;;1.00;;
15258;SDS011;34462;51.368;12.364;2022-09-16T02:40:10;1.87;;;1.03;;
15258;SDS011;34462;51.368;12.364;2022-09-16T02:42:43;2.43;;;1.07;;
15258;SDS011;34462;51.368;12.364;2022-09-16T02:45:12;2.33;;;1.23;;
15258;SDS011;34462;51.368;12.364;2022-09-16T02:47:42;1.10;;;0.90;;
15258;SDS011;34462;51.368;12.364;2022-09-16T02:50:23;2.20;;;1.37;;
15258;SDS011;34462;51.368;12.364;2022-09-16T02:52:58;3.23;;;1.00;;
15258;SDS011;34462;51.368;12.364;2022-09-16T02:55:36;2.93;;;1.20;;
15258;SDS011;34462;51.368;12.364;2022-09-16T02:58:15;1.23;;;1.10;;
15258;SDS011;34462;51.368;12.364;2022-09-16T03:00:44;1.17;;;1.00;;
15258;SDS011;34462;51.368;12.364;2022-09-16T03:03:16;2.10;;;1.20;;
15258;SDS011;34462;51.368;12.364;2022-09-16T03:06:12;2.80;;;1.20;;
15258;SDS011;34462;51.368;12.364;2022-09-16T03:08:47;2.33;;;1.30;;
15258;SDS011;34462;51.368;12.364;2022-09-16T03:11:21;5.63;;;1.40;;
15258;SDS011;34462;51.368;12.364;2022-09-16T03:14:02;3.13;;;1.20;;
15258;SDS011;34462;51.368;12.364;2022-09-16T03:16:59;1.50;;;1.00;;
15258;SDS011;34462;51.368;12.364;2022-09-16T03:19:47;3.60;;;1.43;;
15258;SDS011;34462;51.368;12.364;2022-09-16T03:22:34;4.47;;;1.83;;
15258;SDS011;34462;51.368;12.364;2022-09-16T03:25:18;2.23;;;1.30;;
15258;SDS011;34462;51.368;12.364;2022-09-16T03:28:06;2.83;;;1.33;;
15258;SDS011;34462;51.368;12.364;2022-09-16T03:30:44;4.60;;;1.20;;
15258;SDS011;34462;51.368;12.364;2022-09-16T03:33:21;3.73;;;1.33;;
15258;SDS011;34462;51.368;12.364;2022-09-16T03:35:58;2.63;;;1.20;;
15258;SDS011;34462;51.368;12.364;2022-09-16T03:38:34;2.33;;;1.10;;
15258;SDS011;34462;51.368;12.364;2022-09-16T03:41:06;2.10;;;1.37;;
15258;SDS011;34462;51.368;12.364;2022-09-16T03:43:37;1.83;;;1.23;;
15258;SDS011;34462;51.368;12.364;2022-09-16T03:46:07;1.93;;;1.33;;
15258;SDS011;34462;51.368;12.364;2022-09-16T03:48:37;3.60;;;1.37;;
15258;SDS011;34462;51.368;12.364;2022-09-16T03:51:05;6.23;;;1.73;;
15258;SDS011;34462;51.368;12.364;2022-09-16T03:53:35;4.23;;;1.63;;
15258;SDS011;34462;51.368;12.364;2022-09-16T03:56:03;8.73;;;1.93;;
15258;SDS011;34462;51.368;12.364;2022-09-16T03:58:31;2.50;;;1.23;;
15258;SDS011;34462;51.368;12.364;2022-09-16T04:01:00;3.30;;;1.40;;
15258;SDS011;34462;51.368;12.364;2022-09-16T04:03:28;3.37;;;1.60;;
15258;SDS011;34462;51.368;12.364;2022-09-16T04:05:58;3.37;;;1.50;;
15258;SDS011;34462;51.368;12.364;2022-09-16T04:08:26;4.13;;;2.33;;
15258;SDS011;34462;51.368;12.364;2022-09-16T04:10:56;5.30;;;2.93;;
15258;SDS011;34462;51.368;12.364;2022-09-16T04:13:27;4.17;;;2.77;;
15258;SDS011;34462;51.368;12.364;2022-09-16T04:15:56;3.60;;;3.10;;
15258;SDS011;34462;51.368;12.364;2022-09-16T04:18:24;5.10;;;4.47;;
15258;SDS011;34462;51.368;12.364;2022-09-16T04:20:55;5.53;;;4.97;;
15258;SDS011;34462;51.368;12.364;2022-09-16T04:23:23;7.07;;;6.47;;
15258;SDS011;34462;51.368;12.364;2022-09-16T04:25:53;11.03;;;8.43;;
15258;SDS011;34462;51.368;12.364;2022-09-16T04:28:23;8.97;;;6.00;;
15258;SDS011;34462;51.368;12.364;2022-09-16T04:30:52;10.83;;;7.80;;
15258;SDS011;34462;51.368;12.364;2022-09-16T04:33:20;5.37;;;4.87;;
15258;SDS011;34462;51.368;12.364;2022-09-16T04:35:48;12.27;;;6.30;;
15258;SDS011;34462;51.368;12.364;2022-09-16T04:38:16;7.10;;;5.80;;
15258;SDS011;34462;51.368;12.364;2022-09-16T04:40:44;7.53;;;5.83;;
15258;SDS011;34462;51.368;12.364;2022-09-16T04:43:14;5.97;;;4.10;;
15258;SDS011;34462;51.368;12.364;2022-09-16T04:45:42;5.70;;;3.30;;
15258;SDS011;34462;51.368;12.364;2022-09-16T04:48:10;2.43;;;1.87;;
15258;SDS011;34462;51.368;12.364;2022-09-16T04:50:38;4.37;;;2.00;;
15258;SDS011;34462;51.368;12.364;2022-09-16T04:53:06;2.73;;;1.90;;
15258;SDS011;34462;51.368;12.364;2022-09-16T04:55:34;3.13;;;1.60;;
15258;SDS011;34462;51.368;12.364;2022-09-16T04:58:02;2.03;;;1.63;;
15258;SDS011;34462;51.368;12.364;2022-09-16T05:00:32;6.30;;;1.80;;
15258;SDS011;34462;51.368;12.364;2022-09-16T05:03:00;4.23;;;1.60;;
15258;SDS011;34462;51.368;12.364;2022-09-16T05:05:28;2.40;;;1.40;;
15258;SDS011;34462;51.368;12.364;2022-09-16T05:07:56;2.57;;;1.80;;
15258;SDS011;34462;51.368;12.364;2022-09-16T05:10:24;5.83;;;1.80;;
15258;SDS011;34462;51.368;12.364;2022-09-16T05:12:53;3.67;;;2.00;;
15258;SDS011;34462;51.368;12.364;2022-09-16T05:15:21;3.77;;;2.00;;
15258;SDS011;34462;51.368;12.364;2022-09-16T05:17:51;3.57;;;2.10;;
15258;SDS011;34462;51.368;12.364;2022-09-16T05:20:19;3.20;;;1.80;;
15258;SDS011;34462;51.368;12.364;2022-09-16T05:22:47;3.30;;;1.97;;
15258;SDS011;34462;51.368;12.364;2022-09-16T05:25:16;2.53;;;1.73;;
15258;SDS011;34462;51.368;12.364;2022-09-16T05:27:44;3.93;;;2.10;;
15258;SDS011;34462;51.368;12.364;2022-09-16T05:30:12;6.20;;;2.40;;
15258;SDS011;34462;51.368;12.364;2022-09-16T05:32:42;4.83;;;2.10;;
15258;SDS011;34462;51.368;12.364;2022-09-16T05:35:11;3.33;;;1.90;;
15258;SDS011;34462;51.368;12.364;2022-09-16T05:37:40;4.30;;;1.90;;
15258;SDS011;34462;51.368;12.364;2022-09-16T05:40:08;3.97;;;1.93;;
15258;SDS011;34462;51.368;12.364;2022-09-16T05:42:36;4.20;;;1.93;;
15258;SDS011;34462;51.368;12.364;2022-09-16T05:45:05;4.20;;;2.03;;
15258;SDS011;34462;51.368;12.364;2022-09-16T05:47:34;3.37;;;2.63;;
15258;SDS011;34462;51.368;12.364;2022-09-16T05:50:02;5.17;;;2.73;;
15258;SDS011;34462;51.368;12.364;2022-09-16T05:52:33;3.37;;;2.70;;
15258;SDS011;34462;51.368;12.364;2022-09-16T05:55:01;5.57;;;3.10;;
15258;SDS011;34462;51.368;12.364;2022-09-16T05:57:29;7.50;;;5.37;;
15258;SDS011;34462;51.368;12.364;2022-09-16T05:59:57;4.70;;;2.55;;
15258;SDS011;34462;51.368;12.364;2022-09-16T06:02:26;2.90;;;1.87;;
15258;SDS011;34462;51.368;12.364;2022-09-16T06:04:54;3.90;;;2.37;;
15258;SDS011;34462;51.368;12.364;2022-09-16T06:07:22;3.40;;;1.80;;
15258;SDS011;34462;51.368;12.364;2022-09-16T06:09:51;3.40;;;1.75;;
15258;SDS011;34462;51.368;12.364;2022-09-16T06:12:19;4.07;;;1.90;;
15258;SDS011;34462;51.368;12.364;2022-09-16T06:14:47;4.07;;;1.65;;
15258;SDS011;34462;51.368;12.364;2022-09-16T06:17:15;4.35;;;1.60;;
15258;SDS011;34462;51.368;12.364;2022-09-16T06:19:43;1.45;;;1.30;;
15258;SDS011;34462;51.368;12.364;2022-09-16T06:22:11;2.63;;;1.60;;
15258;SDS011;34462;51.368;12.364;2022-09-16T06:24:39;3.42;;;1.60;;
15258;SDS011;34462;51.368;12.364;2022-09-16T06:27:09;3.87;;;1.50;;
15258;SDS011;34462;51.368;12.364;2022-09-16T06:29:37;2.30;;;1.50;;
15258;SDS011;34462;51.368;12.364;2022-09-16T06:32:05;2.80;;;1.38;;
15258;SDS011;34462;51.368;12.364;2022-09-16T06:34:33;3.03;;;1.47;;
15258;SDS011;34462;51.368;12.364;2022-09-16T06:37:01;5.13;;;1.10;;
15258;SDS011;34462;51.368;12.364;2022-09-16T06:39:30;5.43;;;1.38;;
15258;SDS011;34462;51.368;12.364;2022-09-16T06:41:58;3.22;;;1.20;;
15258;SDS011;34462;51.368;12.364;2022-09-16T06:44:27;3.60;;;1.30;;
15258;SDS011;34462;51.368;12.364;2022-09-16T06:46:55;3.35;;;1.20;;
15258;SDS011;34462;51.368;12.364;2022-09-16T06:49:23;3.42;;;1.10;;
15258;SDS011;34462;51.368;12.364;2022-09-16T06:51:52;3.42;;;1.30;;
15258;SDS011;34462;51.368;12.364;2022-09-16T06:54:20;6.60;;;1.20;;
15258;SDS011;34462;51.368;12.364;2022-09-16T06:56:48;2.45;;;1.35;;
15258;SDS011;34462;51.368;12.364;2022-09-16T06:59:16;3.92;;;1.20;;
15258;SDS011;34462;51.368;12.364;2022-09-16T07:01:45;3.22;;;1.30;;
15258;SDS011;34462;51.368;12.364;2022-09-16T07:04:13;2.72;;;1.00;;
15258;SDS011;34462;51.368;12.364;2022-09-16T07:06:41;2.22;;;1.23;;
15258;SDS011;34462;51.368;12.364;2022-09-16T07:09:31;1.85;;;1.15;;
15258;SDS011;34462;51.368;12.364;2022-09-16T07:11:59;3.30;;;1.00;;
15258;SDS011;34462;51.368;12.364;2022-09-16T07:14:28;3.60;;;1.10;;
15258;SDS011;34462;51.368;12.364;2022-09-16T07:16:59;2.55;;;1.10;;
15258;SDS011;34462;51.368;12.364;2022-09-16T07:19:28;2.55;;;1.30;;
15258;SDS011;34462;51.368;12.364;2022-09-16T07:21:56;3.15;;;1.10;;
15258;SDS011;34462;51.368;12.364;2022-09-16T07:24:24;2.70;;;1.20;;
15258;SDS011;34462;51.368;12.364;2022-09-16T07:26:52;2.17;;;1.30;;
15258;SDS011;34462;51.368;12.364;2022-09-16T07:29:20;4.78;;;1.20;;
15258;SDS011;34462;51.368;12.364;2022-09-16T07:31:48;3.72;;;1.50;;
15258;SDS011;34462;51.368;12.364;2022-09-16T07:34:17;4.60;;;1.30;;
15258;SDS011;34462;51.368;12.364;2022-09-16T07:36:46;1.73;;;1.10;;
15258;SDS011;34462;51.368;12.364;2022-09-16T07:39:16;5.30;;;1.20;;
15258;SDS011;34462;51.368;12.364;2022-09-16T07:41:46;3.00;;;1.38;;
15258;SDS011;34462;51.368;12.364;2022-09-16T07:44:15;2.63;;;1.00;;
15258;SDS011;34462;51.368;12.364;2022-09-16T07:46:47;1.85;;;1.00;;
15258;SDS011;34462;51.368;12.364;2022-09-16T07:49:18;5.25;;;1.40;;
15258;SDS011;34462;51.368;12.364;2022-09-16T07:51:46;2.20;;;1.30;;
15258;SDS011;34462;51.368;12.364;2022-09-16T07:54:15;2.00;;;1.20;;
15258;SDS011;34462;51.368;12.364;2022-09-16T07:56:44;2.25;;;1.25;;
15258;SDS011;34462;51.368;12.364;2022-09-16T07:59:13;3.45;;;1.40;;
15258;SDS011;34462;51.368;12.364;2022-09-16T08:01:45;3.03;;;1.60;;
15258;SDS011;34462;51.368;12.364;2022-09-16T08:04:15;2.42;;;1.20;;
15258;SDS011;34462;51.368;12.364;2022-09-16T08:06:46;2.33;;;1.48;;
15258;SDS011;34462;51.368;12.364;2022-09-16T08:09:14;2.13;;;1.40;;
15258;SDS011;34462;51.368;12.364;2022-09-16T08:12:03;2.42;;;1.60;;
15258;SDS011;34462;51.368;12.364;2022-09-16T08:14:33;1.80;;;1.48;;
15258;SDS011;34462;51.368;12.364;2022-09-16T08:17:01;1.33;;;1.23;;
15258;SDS011;34462;51.368;12.364;2022-09-16T08:19:31;4.07;;;1.73;;
15258;SDS011;34462;51.368;12.364;2022-09-16T08:21:59;3.15;;;1.45;;
15258;SDS011;34462;51.368;12.364;2022-09-16T08:24:27;2.17;;;1.45;;
15258;SDS011;34462;51.368;12.364;2022-09-16T08:26:55;2.08;;;1.40;;
15258;SDS011;34462;51.368;12.364;2022-09-16T08:29:23;3.08;;;1.50;;
15258;SDS011;34462;51.368;12.364;2022-09-16T08:31:52;1.95;;;1.35;;
15258;SDS011;34462;51.368;12.364;2022-09-16T08:34:20;3.83;;;2.20;;
15258;SDS011;34462;51.368;12.364;2022-09-16T08:36:50;2.67;;;1.30;;
15258;SDS011;34462;51.368;12.364;2022-09-16T08:39:18;2.83;;;1.45;;
15258;SDS011;34462;51.368;12.364;2022-09-16T08:45:04;1.88;;;1.20;;
15258;SDS011;34462;51.368;12.364;2022-09-16T08:47:49;1.83;;;1.25;;
15258;SDS011;34462;51.368;12.364;2022-09-16T08:50:36;1.75;;;1.25;;
15258;SDS011;34462;51.368;12.364;2022-09-16T08:53:11;1.95;;;1.35;;
15258;SDS011;34462;51.368;12.364;2022-09-16T08:55:46;1.30;;;1.10;;
15258;SDS011;34462;51.368;12.364;2022-09-16T08:58:18;1.52;;;1.10;;
15258;SDS011;34462;51.368;12.364;2022-09-16T09:00:53;1.85;;;1.30;;
15258;SDS011;34462;51.368;12.364;2022-09-16T09:03:30;3.28;;;1.25;;
15258;SDS011;34462;51.368;12.364;2022-09-16T09:06:05;2.70;;;1.50;;
15258;SDS011;34462;51.368;12.364;2022-09-16T09:08:52;1.55;;;1.23;;
15258;SDS011;34462;51.368;12.364;2022-09-16T09:11:39;2.42;;;1.15;;
15258;SDS011;34462;51.368;12.364;2022-09-16T09:14:23;2.40;;;1.13;;
15258;SDS011;34462;51.368;12.364;2022-09-16T09:17:08;1.92;;;0.90;;
15258;SDS011;34462;51.368;12.364;2022-09-16T09:19:54;1.52;;;1.00;;
15258;SDS011;34462;51.368;12.364;2022-09-16T09:22:39;2.83;;;1.33;;
15258;SDS011;34462;51.368;12.364;2022-09-16T09:25:30;1.42;;;1.10;;
15258;SDS011;34462;51.368;12.364;2022-09-16T09:28:14;3.97;;;3.58;;
15258;SDS011;34462;51.368;12.364;2022-09-16T09:31:06;1.00;;;0.90;;
15258;SDS011;34462;51.368;12.364;2022-09-16T09:33:51;1.70;;;0.70;;
15258;SDS011;34462;51.368;12.364;2022-09-16T09:36:35;1.20;;;0.90;;
15258;SDS011;34462;51.368;12.364;2022-09-16T09:39:21;1.58;;;0.80;;
15258;SDS011;34462;51.368;12.364;2022-09-16T09:42:11;0.75;;;0.70;;
15258;SDS011;34462;51.368;12.364;2022-09-16T09:44:49;1.65;;;1.10;;
15258;SDS011;34462;51.368;12.364;2022-09-16T09:47:30;0.93;;;0.80;;
15258;SDS011;34462;51.368;12.364;2022-09-16T09:50:09;0.75;;;0.75;;
15258;SDS011;34462;51.368;12.364;2022-09-16T09:52:47;2.97;;;1.00;;
15258;SDS011;34462;51.368;12.364;2022-09-16T09:55:24;2.92;;;0.95;;
15258;SDS011;34462;51.368;12.364;2022-09-16T09:58:10;1.23;;;1.00;;
15258;SDS011;34462;51.368;12.364;2022-09-16T10:00:50;1.48;;;0.90;;
15258;SDS011;34462;51.368;12.364;2022-09-16T10:03:21;1.33;;;1.00;;
15258;SDS011;34462;51.368;12.364;2022-09-16T10:05:52;1.92;;;0.90;;
15258;SDS011;34462;51.368;12.364;2022-09-16T10:08:22;0.68;;;0.68;;
15258;SDS011;34462;51.368;12.364;2022-09-16T10:10:56;1.80;;;1.08;;
15258;SDS011;34462;51.368;12.364;2022-09-16T10:13:29;0.80;;;0.80;;
15258;SDS011;34462;51.368;12.364;2022-09-16T10:16:06;1.38;;;0.80;;
15258;SDS011;34462;51.368;12.364;2022-09-16T10:18:40;2.20;;;1.05;;
15258;SDS011;34462;51.368;12.364;2022-09-16T10:21:11;2.47;;;1.00;;
15258;SDS011;34462;51.368;12.364;2022-09-16T10:23:51;1.50;;;0.95;;
15258;SDS011;34462;51.368;12.364;2022-09-16T10:26:21;1.55;;;0.90;;
15258;SDS011;34462;51.368;12.364;2022-09-16T10:28:54;1.67;;;1.02;;
15258;SDS011;34462;51.368;12.364;2022-09-16T10:31:27;1.52;;;1.10;;
15258;SDS011;34462;51.368;12.364;2022-09-16T10:34:12;1.38;;;1.05;;
15258;SDS011;34462;51.368;12.364;2022-09-16T10:36:57;1.85;;;1.00;;
15258;SDS011;34462;51.368;12.364;2022-09-16T10:39:29;0.85;;;0.85;;
15258;SDS011;34462;51.368;12.364;2022-09-16T10:41:59;1.23;;;1.00;;
15258;SDS011;34462;51.368;12.364;2022-09-16T10:44:33;2.08;;;0.73;;
15258;SDS011;34462;51.368;12.364;2022-09-16T10:47:04;1.00;;;0.93;;
15258;SDS011;34462;51.368;12.364;2022-09-16T10:49:45;2.33;;;0.80;;
15258;SDS011;34462;51.368;12.364;2022-09-16T10:52:19;3.00;;;1.05;;
15258;SDS011;34462;51.368;12.364;2022-09-16T10:54:49;2.15;;;1.02;;
15258;SDS011;34462;51.368;12.364;2022-09-16T10:57:23;2.03;;;1.08;;
15258;SDS011;34462;51.368;12.364;2022-09-16T10:59:57;1.83;;;1.00;;
15258;SDS011;34462;51.368;12.364;2022-09-16T11:02:32;1.77;;;1.20;;
15258;SDS011;34462;51.368;12.364;2022-09-16T11:05:51;2.72;;;0.95;;
15258;SDS011;34462;51.368;12.364;2022-09-16T11:08:39;3.60;;;0.90;;
15258;SDS011;34462;51.368;12.364;2022-09-16T11:11:32;1.42;;;0.90;;
15258;SDS011;34462;51.368;12.364;2022-09-16T11:14:26;1.30;;;0.80;;
15258;SDS011;34462;51.368;12.364;2022-09-16T11:17:17;2.13;;;0.68;;
15258;SDS011;34462;51.368;12.364;2022-09-16T11:20:16;1.70;;;0.85;;
15258;SDS011;34462;51.368;12.364;2022-09-16T11:23:22;2.10;;;0.73;;
15258;SDS011;34462;51.368;12.364;2022-09-16T11:26:06;1.20;;;1.00;;
15258;SDS011;34462;51.368;12.364;2022-09-16T11:28:55;1.52;;;0.90;;
15258;SDS011;34462;51.368;12.364;2022-09-16T11:31:53;1.30;;;0.90;;
15258;SDS011;34462;51.368;12.364;2022-09-16T11:34:46;1.55;;;0.90;;
15258;SDS011;34462;51.368;12.364;2022-09-16T11:37:37;3.92;;;0.80;;
15258;SDS011;34462;51.368;12.364;2022-09-16T11:40:19;1.67;;;0.75;;
15258;SDS011;34462;51.368;12.364;2022-09-16T11:43:03;1.20;;;0.70;;
15258;SDS011;34462;51.368;12.364;2022-09-16T11:46:06;1.25;;;1.00;;
15258;SDS011;34462;51.368;12.364;2022-09-16T11:48:48;1.00;;;0.70;;
15258;SDS011;34462;51.368;12.364;2022-09-16T11:51:40;1.48;;;0.70;;
15258;SDS011;34462;51.368;12.364;2022-09-16T11:54:35;0.55;;;0.52;;
15258;SDS011;34462;51.368;12.364;2022-09-16T11:57:25;1.20;;;0.52;;
15258;SDS011;34462;51.368;12.364;2022-09-16T11:59:59;2.10;;;0.90;;
15258;SDS011;34462;51.368;12.364;2022-09-16T12:02:33;0.95;;;0.50;;
15258;SDS011;34462;51.368;12.364;2022-09-16T12:05:10;1.33;;;0.65;;
15258;SDS011;34462;51.368;12.364;2022-09-16T12:07:49;2.53;;;0.82;;
15258;SDS011;34462;51.368;12.364;2022-09-16T12:10:31;1.98;;;1.02;;
15258;SDS011;34462;51.368;12.364;2022-09-16T12:13:08;2.03;;;0.80;;
15258;SDS011;34462;51.368;12.364;2022-09-16T12:15:43;1.48;;;0.70;;
15258;SDS011;34462;51.368;12.364;2022-09-16T12:18:18;1.23;;;0.65;;
15258;SDS011;34462;51.368;12.364;2022-09-16T12:20:55;3.75;;;0.70;;
15258;SDS011;34462;51.368;12.364;2022-09-16T12:23:37;1.15;;;0.50;;
15258;SDS011;34462;51.368;12.364;2022-09-16T12:26:13;2.78;;;0.70;;
15258;SDS011;34462;51.368;12.364;2022-09-16T12:28:49;0.40;;;0.40;;
15258;SDS011;34462;51.368;12.364;2022-09-16T12:31:25;1.52;;;0.80;;
15258;SDS011;34462;51.368;12.364;2022-09-16T12:34:03;0.80;;;0.60;;
15258;SDS011;34462;51.368;12.364;2022-09-16T12:36:40;1.65;;;0.40;;
15258;SDS011;34462;51.368;12.364;2022-09-16T12:39:15;0.70;;;0.40;;
15258;SDS011;34462;51.368;12.364;2022-09-16T12:41:46;0.45;;;0.45;;
15258;SDS011;34462;51.368;12.364;2022-09-16T12:44:46;1.17;;;0.50;;
15258;SDS011;34462;51.368;12.364;2022-09-16T12:47:45;0.55;;;0.40;;
15258;SDS011;34462;51.368;12.364;2022-09-16T12:50:44;1.02;;;0.40;;
15258;SDS011;34462;51.368;12.364;2022-09-16T12:56:52;1.08;;;0.60;;
15258;SDS011;34462;51.368;12.364;2022-09-16T12:59:52;0.90;;;0.43;;
15258;SDS011;34462;51.368;12.364;2022-09-16T13:02:37;1.08;;;0.47;;
15258;SDS011;34462;51.368;12.364;2022-09-16T13:05:15;0.55;;;0.40;;
15258;SDS011;34462;51.368;12.364;2022-09-16T13:07:53;0.65;;;0.50;;
15258;SDS011;34462;51.368;12.364;2022-09-16T13:10:30;3.72;;;0.70;;
15258;SDS011;34462;51.368;12.364;2022-09-16T13:13:24;1.27;;;0.60;;
15258;SDS011;34462;51.368;12.364;2022-09-16T13:16:01;0.60;;;0.50;;
15258;SDS011;34462;51.368;12.364;2022-09-16T13:18:40;1.95;;;0.63;;
15258;SDS011;34462;51.368;12.364;2022-09-16T13:21:20;2.90;;;0.90;;
15258;SDS011;34462;51.368;12.364;2022-09-16T13:23:57;1.10;;;0.63;;
15258;SDS011;34462;51.368;12.364;2022-09-16T13:26:41;2.20;;;0.80;;
15258;SDS011;34462;51.368;12.364;2022-09-16T13:29:29;2.35;;;0.80;;
15258;SDS011;34462;51.368;12.364;2022-09-16T13:32:25;1.25;;;0.70;;
15258;SDS011;34462;51.368;12.364;2022-09-16T13:35:03;1.77;;;0.73;;
15258;SDS011;34462;51.368;12.364;2022-09-16T13:37:50;2.08;;;0.63;;
15258;SDS011;34462;51.368;12.364;2022-09-16T13:40:21;1.10;;;0.70;;
15258;SDS011;34462;51.368;12.364;2022-09-16T13:43:04;2.25;;;0.80;;
15258;SDS011;34462;51.368;12.364;2022-09-16T13:45:40;1.67;;;0.80;;
15258;SDS011;34462;51.368;12.364;2022-09-16T13:48:11;1.85;;;0.65;;
15258;SDS011;34462;51.368;12.364;2022-09-16T13:50:45;3.92;;;1.00;;
15258;SDS011;34462;51.368;12.364;2022-09-16T13:53:19;1.42;;;0.70;;
15258;SDS011;34462;51.368;12.364;2022-09-16T13:55:56;1.00;;;0.90;;
15258;SDS011;34462;51.368;12.364;2022-09-16T13:58:36;2.05;;;0.70;;
15258;SDS011;34462;51.368;12.364;2022-09-16T14:01:19;1.30;;;0.65;;
15258;SDS011;34462;51.368;12.364;2022-09-16T14:04:17;1.83;;;0.70;;
15258;SDS011;34462;51.368;12.364;2022-09-16T14:07:10;1.95;;;0.70;;
15258;SDS011;34462;51.368;12.364;2022-09-16T14:09:52;1.92;;;0.80;;
15258;SDS011;34462;51.368;12.364;2022-09-16T14:12:30;1.85;;;0.85;;
15258;SDS011;34462;51.368;12.364;2022-09-16T14:15:14;1.23;;;0.88;;
15258;SDS011;34462;51.368;12.364;2022-09-16T14:17:45;2.28;;;1.13;;
15258;SDS011;34462;51.368;12.364;2022-09-16T14:20:19;2.55;;;0.93;;
15258;SDS011;34462;51.368;12.364;2022-09-16T14:22:58;2.70;;;0.77;;
15258;SDS011;34462;51.368;12.364;2022-09-16T14:25:28;1.70;;;0.90;;
15258;SDS011;34462;51.368;12.364;2022-09-16T14:28:14;2.53;;;0.80;;
15258;SDS011;34462;51.368;12.364;2022-09-16T14:30:51;2.90;;;0.85;;
15258;SDS011;34462;51.368;12.364;2022-09-16T14:33:23;2.78;;;0.80;;
15258;SDS011;34462;51.368;12.364;2022-09-16T14:35:56;1.27;;;0.75;;
15258;SDS011;34462;51.368;12.364;2022-09-16T14:38:29;1.33;;;0.70;;
15258;SDS011;34462;51.368;12.364;2022-09-16T14:41:14;1.95;;;1.02;;
15258;SDS011;34462;51.368;12.364;2022-09-16T14:43:50;1.75;;;0.80;;
15258;SDS011;34462;51.368;12.364;2022-09-16T14:46:25;3.42;;;0.75;;
15258;SDS011;34462;51.368;12.364;2022-09-16T14:48:53;1.27;;;0.60;;
15258;SDS011;34462;51.368;12.364;2022-09-16T14:51:23;0.77;;;0.70;;
15258;SDS011;34462;51.368;12.364;2022-09-16T14:53:54;2.75;;;0.93;;
15258;SDS011;34462;51.368;12.364;2022-09-16T14:56:40;3.53;;;1.00;;
15258;SDS011;34462;51.368;12.364;2022-09-16T14:59:09;3.10;;;0.80;;
15258;SDS011;34462;51.368;12.364;2022-09-16T15:01:41;3.33;;;0.77;;
15258;SDS011;34462;51.368;12.364;2022-09-16T15:04:13;2.35;;;0.80;;
15258;SDS011;34462;51.368;12.364;2022-09-16T15:06:46;3.33;;;1.00;;
15258;SDS011;34462;51.368;12.364;2022-09-16T15:09:22;3.47;;;0.90;;
15258;SDS011;34462;51.368;12.364;2022-09-16T15:11:58;2.97;;;0.80;;
15258;SDS011;34462;51.368;12.364;2022-09-16T15:14:27;2.17;;;1.20;;
15258;SDS011;34462;51.368;12.364;2022-09-16T15:16:59;3.45;;;0.80;;
15258;SDS011;34462;51.368;12.364;2022-09-16T15:19:31;4.50;;;0.90;;
15258;SDS011;34462;51.368;12.364;2022-09-16T15:22:04;1.48;;;0.90;;
15258;SDS011;34462;51.368;12.364;2022-09-16T15:24:39;3.17;;;1.10;;
15258;SDS011;34462;51.368;12.364;2022-09-16T15:27:08;1.58;;;1.23;;
15258;SDS011;34462;51.368;12.364;2022-09-16T15:29:45;2.35;;;1.08;;